createdAt,value
2019-03-30T00:00:32.684Z,12.23
2019-03-30T00:02:58.846Z,10.77
2019-03-30T00:05:25.012Z,10.63
2019-03-30T00:07:51.200Z,9.50
2019-03-30T00:10:17.364Z,9.80
2019-03-30T00:12:43.576Z,8.83
2019-03-30T00:15:09.770Z,9.77
2019-03-30T00:17:35.928Z,9.30
2019-03-30T00:20:02.806Z,9.30
2019-03-30T00:22:29.007Z,9.03
2019-03-30T00:24:55.493Z,8.70
2019-03-30T00:27:21.639Z,7.90
2019-03-30T00:29:47.835Z,9.57
2019-03-30T00:32:13.990Z,9.73
2019-03-30T00:34:40.158Z,9.13
2019-03-30T00:37:06.347Z,11.00
2019-03-30T00:39:32.511Z,10.37
2019-03-30T00:41:58.666Z,10.40
2019-03-30T00:44:24.853Z,9.57
2019-03-30T00:46:51.014Z,10.17
2019-03-30T00:49:17.168Z,11.30
2019-03-30T00:51:43.357Z,10.00
2019-03-30T00:54:09.619Z,10.87
2019-03-30T00:56:35.771Z,10.33
2019-03-30T00:59:01.972Z,9.97
2019-03-30T01:01:28.124Z,10.90
2019-03-30T01:03:54.286Z,11.10
2019-03-30T01:06:20.568Z,10.87
2019-03-30T01:08:47.248Z,11.43
2019-03-30T01:11:13.578Z,11.93
2019-03-30T01:13:39.822Z,10.40
2019-03-30T01:16:05.978Z,10.73
2019-03-30T01:18:32.131Z,10.20
2019-03-30T01:20:58.316Z,10.33
2019-03-30T01:23:24.471Z,10.00
2019-03-30T01:25:50.628Z,10.50
2019-03-30T01:28:16.822Z,9.37
2019-03-30T01:30:42.980Z,8.87
2019-03-30T01:33:09.142Z,10.33
2019-03-30T01:35:35.429Z,9.90
2019-03-30T01:38:01.676Z,9.93
2019-03-30T01:40:27.845Z,11.87
2019-03-30T01:42:54.028Z,10.87
2019-03-30T01:45:20.186Z,10.50
2019-03-30T01:47:46.349Z,11.60
2019-03-30T01:50:17.627Z,12.17
2019-03-30T01:52:41.114Z,11.83
2019-03-30T01:55:07.472Z,10.53
2019-03-30T01:57:33.668Z,10.83
2019-03-30T01:59:59.820Z,10.57
2019-03-30T02:02:25.879Z,11.80
2019-03-30T02:04:52.073Z,11.03
2019-03-30T02:07:18.225Z,11.00
2019-03-30T02:09:44.379Z,11.30
2019-03-30T02:12:10.588Z,10.60
2019-03-30T02:14:36.743Z,11.47
2019-03-30T02:17:02.911Z,9.70
2019-03-30T02:19:29.212Z,11.20
2019-03-30T02:21:55.373Z,12.00
2019-03-30T02:24:21.534Z,13.60
2019-03-30T02:26:47.726Z,13.03
2019-03-30T02:29:13.887Z,11.73
2019-03-30T02:31:40.054Z,11.93
2019-03-30T02:34:06.241Z,12.60
2019-03-30T02:36:32.389Z,11.80
2019-03-30T02:38:58.547Z,11.87
2019-03-30T02:41:24.749Z,12.73
2019-03-30T02:43:50.904Z,13.07
2019-03-30T02:46:17.063Z,12.63
2019-03-30T02:48:43.256Z,12.80
2019-03-30T02:51:09.433Z,13.53
2019-03-30T02:53:35.578Z,12.57
2019-03-30T02:56:01.848Z,12.63
2019-03-30T02:58:28.024Z,13.70
2019-03-30T03:00:54.193Z,13.40
2019-03-30T03:03:20.378Z,13.10
2019-03-30T03:05:46.537Z,13.83
2019-03-30T03:08:12.697Z,14.07
2019-03-30T03:10:38.881Z,13.33
2019-03-30T03:13:05.065Z,12.23
2019-03-30T03:15:31.268Z,13.13
2019-03-30T03:17:57.460Z,11.97
2019-03-30T03:20:23.728Z,14.13
2019-03-30T03:22:49.884Z,13.50
2019-03-30T03:25:16.352Z,13.20
2019-03-30T03:27:42.509Z,12.73
2019-03-30T03:30:08.982Z,14.03
2019-03-30T03:32:35.267Z,11.67
2019-03-30T03:35:01.430Z,11.43
2019-03-30T03:37:43.260Z,10.07
2019-03-30T03:39:55.666Z,9.53
2019-03-30T03:42:21.827Z,9.00
2019-03-30T03:44:47.983Z,9.10
2019-03-30T03:47:14.185Z,10.57
2019-03-30T03:49:40.334Z,8.70
2019-03-30T03:52:07.511Z,9.33
2019-03-30T03:54:33.682Z,9.67
2019-03-30T03:57:01.953Z,8.80
2019-03-30T03:59:29.322Z,9.03
2019-03-30T04:01:57.412Z,9.57
2019-03-30T04:04:25.861Z,9.30
2019-03-30T04:06:55.345Z,9.73
2019-03-30T04:09:22.210Z,10.57
2019-03-30T04:11:50.074Z,11.90
2019-03-30T04:14:19.348Z,11.53
2019-03-30T04:16:45.519Z,12.20
2019-03-30T04:19:11.667Z,12.60
2019-03-30T04:21:44.345Z,13.60
2019-03-30T04:24:05.928Z,13.00
2019-03-30T04:26:32.085Z,13.83
2019-03-30T04:28:58.232Z,13.57
2019-03-30T04:31:24.436Z,14.23
2019-03-30T04:33:50.570Z,15.40
2019-03-30T04:36:16.735Z,14.50
2019-03-30T04:38:42.912Z,14.53
2019-03-30T04:41:09.076Z,14.97
2019-03-30T04:43:35.232Z,14.30
2019-03-30T04:46:01.540Z,14.77
2019-03-30T04:48:29.418Z,14.63
2019-03-30T04:50:55.747Z,14.67
2019-03-30T04:53:21.950Z,13.20
2019-03-30T04:55:48.116Z,15.47
2019-03-30T04:58:14.274Z,16.03
2019-03-30T05:00:40.465Z,15.00
2019-03-30T05:03:06.639Z,16.57
2019-03-30T05:05:32.799Z,17.47
2019-03-30T05:07:58.999Z,13.23
2019-03-30T05:10:25.156Z,15.97
2019-03-30T05:12:51.316Z,13.67
2019-03-30T05:15:17.499Z,13.77
2019-03-30T05:17:47.455Z,14.70
2019-03-30T05:20:11.767Z,14.33
2019-03-30T05:22:37.952Z,14.80
2019-03-30T05:25:04.544Z,13.90
2019-03-30T05:27:30.695Z,17.97
2019-03-30T05:29:56.896Z,20.77
2019-03-30T05:32:23.053Z,15.30
2019-03-30T05:34:49.211Z,14.97
2019-03-30T05:37:15.409Z,14.00
2019-03-30T05:39:41.574Z,14.13
2019-03-30T05:42:07.738Z,14.83
2019-03-30T05:44:34.038Z,13.67
2019-03-30T05:47:00.200Z,15.03
2019-03-30T05:49:26.462Z,14.30
2019-03-30T05:51:52.678Z,14.47
2019-03-30T05:54:18.853Z,14.17
2019-03-30T05:56:45.014Z,14.07
2019-03-30T05:59:11.205Z,15.67
2019-03-30T06:01:40.144Z,15.37
2019-03-30T06:04:06.299Z,14.47
2019-03-30T06:06:35.282Z,17.07
2019-03-30T06:09:01.435Z,17.17
2019-03-30T06:11:27.620Z,16.10
2019-03-30T06:13:53.816Z,14.93
2019-03-30T06:16:20.633Z,18.03
2019-03-30T06:18:50.746Z,18.53
2019-03-30T06:21:17.040Z,17.43
2019-03-30T06:23:43.223Z,17.43
2019-03-30T06:26:12.682Z,18.87
2019-03-30T06:28:40.931Z,14.13
2019-03-30T06:31:13.767Z,17.53
2019-03-30T06:33:39.933Z,17.13
2019-03-30T06:36:06.123Z,16.37
2019-03-30T06:38:34.339Z,17.57
2019-03-30T06:41:00.906Z,18.43
2019-03-30T06:43:27.065Z,16.67
2019-03-30T06:45:53.215Z,17.47
2019-03-30T06:48:19.379Z,17.53
2019-03-30T06:50:45.571Z,18.27
2019-03-30T06:53:11.736Z,17.93
2019-03-30T06:55:37.903Z,17.83
2019-03-30T06:58:04.097Z,19.10
2019-03-30T07:00:32.063Z,20.33
2019-03-30T07:02:59.822Z,21.33
2019-03-30T07:05:26.958Z,19.97
2019-03-30T07:07:53.128Z,20.60
2019-03-30T07:10:19.369Z,20.83
2019-03-30T07:12:45.741Z,22.70
2019-03-30T07:15:12.009Z,23.43
2019-03-30T07:17:41.791Z,24.10
2019-03-30T07:20:11.642Z,25.40
2019-03-30T07:22:37.809Z,26.40
2019-03-30T07:25:04.578Z,25.83
2019-03-30T07:27:30.776Z,23.77
2019-03-30T07:29:56.943Z,22.27
2019-03-30T07:32:23.100Z,20.63
2019-03-30T07:34:49.299Z,21.80
2019-03-30T07:37:15.454Z,25.23
2019-03-30T07:39:41.614Z,27.63
2019-03-30T07:42:09.713Z,30.37
2019-03-30T07:44:35.886Z,28.93
2019-03-30T07:47:02.040Z,30.00
2019-03-30T07:49:30.052Z,28.77
2019-03-30T07:51:56.205Z,25.47
2019-03-30T07:54:22.364Z,24.33
2019-03-30T07:56:48.559Z,26.07
2019-03-30T07:59:14.728Z,25.47
2019-03-30T08:01:40.892Z,24.53
2019-03-30T08:04:07.096Z,23.10
2019-03-30T08:06:33.266Z,23.00
2019-03-30T08:08:59.631Z,20.73
2019-03-30T08:11:25.831Z,22.47
2019-03-30T08:13:52.006Z,24.43
2019-03-30T08:16:18.179Z,22.23
2019-03-30T08:18:44.380Z,22.10
2019-03-30T08:21:10.588Z,21.77
2019-03-30T08:23:40.612Z,25.30
2019-03-30T08:26:04.953Z,25.33
2019-03-30T08:28:31.118Z,24.93
2019-03-30T08:30:57.283Z,27.50
2019-03-30T08:33:23.486Z,30.57
2019-03-30T08:35:49.754Z,27.20
2019-03-30T08:38:15.911Z,26.37
2019-03-30T08:40:42.119Z,24.60
2019-03-30T08:43:08.377Z,24.13
2019-03-30T08:45:34.533Z,27.40
2019-03-30T08:48:00.802Z,25.63
2019-03-30T08:50:26.957Z,24.70
2019-03-30T08:52:53.210Z,22.73
2019-03-30T08:55:19.432Z,23.43
2019-03-30T08:57:45.616Z,23.43
2019-03-30T09:00:15.472Z,12.33
2019-03-30T09:02:41.667Z,9.83
2019-03-30T09:05:08.258Z,9.03
2019-03-30T09:07:34.402Z,8.50
2019-03-30T09:10:00.646Z,12.27
2019-03-30T09:12:26.863Z,9.70
2019-03-30T09:14:53.026Z,11.33
2019-03-30T09:17:19.229Z,11.07
2019-03-30T09:19:45.385Z,12.40
2019-03-30T09:22:11.653Z,9.33
2019-03-30T09:24:37.836Z,8.50
2019-03-30T09:27:04.353Z,8.07
2019-03-30T09:29:30.616Z,10.17
2019-03-30T09:31:56.830Z,9.20
2019-03-30T09:34:22.970Z,10.77
2019-03-30T09:36:49.344Z,10.40
2019-03-30T09:39:15.733Z,9.73
2019-03-30T09:41:42.243Z,8.17
2019-03-30T09:44:13.398Z,8.70
2019-03-30T09:46:39.685Z,8.37
2019-03-30T09:49:05.948Z,8.03
2019-03-30T09:51:32.250Z,8.80
2019-03-30T09:53:58.428Z,7.37
2019-03-30T09:56:24.606Z,8.73
2019-03-30T09:58:50.768Z,7.13
2019-03-30T10:01:16.964Z,5.77
2019-03-30T10:03:43.222Z,6.07
2019-03-30T10:06:09.376Z,7.93
2019-03-30T10:08:35.571Z,6.40
2019-03-30T10:11:01.827Z,6.93
2019-03-30T10:13:27.976Z,8.30
2019-03-30T10:15:54.172Z,8.57
2019-03-30T10:18:20.315Z,9.03
2019-03-30T10:20:46.476Z,8.40
2019-03-30T10:23:13.669Z,9.97
2019-03-30T10:25:39.828Z,10.70
2019-03-30T10:28:05.981Z,10.03
2019-03-30T10:30:32.168Z,7.93
2019-03-30T10:32:58.325Z,9.27
2019-03-30T10:35:24.501Z,8.90
2019-03-30T10:37:50.700Z,9.73
2019-03-30T10:40:16.964Z,9.07
2019-03-30T10:42:43.123Z,8.57
2019-03-30T10:45:09.815Z,8.50
2019-03-30T10:47:35.980Z,9.90
2019-03-30T10:50:06.380Z,10.30
2019-03-30T10:52:32.565Z,11.07
2019-03-30T10:54:58.715Z,11.23
2019-03-30T10:57:24.876Z,11.03
2019-03-30T10:59:51.065Z,11.17
2019-03-30T11:02:17.211Z,10.27
2019-03-30T11:04:43.373Z,11.67
2019-03-30T11:07:09.572Z,11.37
2019-03-30T11:09:35.752Z,11.23
2019-03-30T11:12:01.913Z,10.73
2019-03-30T11:14:28.102Z,10.63
2019-03-30T11:16:54.260Z,10.77
2019-03-30T11:19:20.427Z,10.93
2019-03-30T11:21:46.619Z,9.87
2019-03-30T11:24:12.830Z,10.83
2019-03-30T11:26:38.985Z,12.03
2019-03-30T11:29:05.172Z,11.57
2019-03-30T11:31:31.328Z,11.37
2019-03-30T11:33:57.480Z,11.37
2019-03-30T11:36:23.694Z,11.33
2019-03-30T11:38:49.851Z,11.47
2019-03-30T11:41:16.012Z,11.70
2019-03-30T11:43:42.217Z,11.77
2019-03-30T11:46:08.373Z,11.80
2019-03-30T11:48:37.280Z,11.17
2019-03-30T11:51:02.722Z,10.40
2019-03-30T11:53:28.874Z,11.40
2019-03-30T11:55:55.023Z,9.90
2019-03-30T11:58:21.215Z,10.47
2019-03-30T12:00:47.465Z,10.80
2019-03-30T12:03:13.670Z,10.70
2019-03-30T12:05:39.859Z,11.27
2019-03-30T12:08:06.027Z,10.90
2019-03-30T12:10:32.180Z,11.47
2019-03-30T12:12:58.463Z,11.87
2019-03-30T12:15:24.670Z,10.40
2019-03-30T12:17:51.005Z,11.10
2019-03-30T12:20:17.275Z,11.10
2019-03-30T12:22:43.429Z,9.50
2019-03-30T12:25:10.603Z,9.67
2019-03-30T12:27:49.018Z,9.30
2019-03-30T12:30:15.305Z,7.20
2019-03-30T12:32:41.462Z,8.83
2019-03-30T12:35:08.052Z,9.50
2019-03-30T12:37:34.917Z,7.37
2019-03-30T12:40:01.067Z,8.97
2019-03-30T12:42:27.262Z,9.33
2019-03-30T12:44:53.421Z,9.57
2019-03-30T12:47:19.574Z,9.97
2019-03-30T12:49:45.766Z,9.57
2019-03-30T12:52:11.912Z,10.33
2019-03-30T12:54:38.065Z,9.77
2019-03-30T12:57:04.278Z,7.23
2019-03-30T12:59:30.541Z,8.33
2019-03-30T13:01:56.686Z,9.20
2019-03-30T13:04:22.880Z,9.83
2019-03-30T13:06:49.228Z,9.20
2019-03-30T13:09:15.379Z,8.70
2019-03-30T13:11:41.564Z,8.33
2019-03-30T13:14:07.850Z,7.93
2019-03-30T13:16:34.008Z,8.70
2019-03-30T13:19:00.204Z,9.27
2019-03-30T13:21:26.365Z,9.43
2019-03-30T13:23:52.527Z,8.87
2019-03-30T13:26:18.718Z,8.90
2019-03-30T13:28:44.881Z,8.83
2019-03-30T13:31:11.167Z,8.50
2019-03-30T13:33:37.337Z,8.30
2019-03-30T13:36:03.893Z,8.90
2019-03-30T13:38:30.055Z,8.37
2019-03-30T13:40:56.232Z,8.97
2019-03-30T13:43:22.385Z,8.37
2019-03-30T13:45:48.554Z,8.70
2019-03-30T13:48:14.736Z,8.60
2019-03-30T13:50:40.888Z,8.63
2019-03-30T13:53:07.043Z,8.43
2019-03-30T13:55:33.231Z,9.10
2019-03-30T13:57:59.385Z,7.93
2019-03-30T14:00:25.531Z,7.27
2019-03-30T14:02:51.855Z,8.50
2019-03-30T14:05:18.007Z,9.27
2019-03-30T14:07:44.251Z,6.57
2019-03-30T14:10:10.741Z,7.80
2019-03-30T14:12:36.890Z,8.47
2019-03-30T14:15:04.051Z,8.30
2019-03-30T14:17:30.064Z,8.30
2019-03-30T14:19:56.243Z,6.73
2019-03-30T14:22:22.405Z,8.07
2019-03-30T14:24:48.592Z,7.33
2019-03-30T14:27:15.688Z,9.13
2019-03-30T14:29:41.852Z,7.90
2019-03-30T14:32:08.042Z,7.00
2019-03-30T14:34:34.198Z,7.43
2019-03-30T14:37:00.357Z,6.60
2019-03-30T14:39:26.643Z,8.03
2019-03-30T14:41:52.796Z,7.13
2019-03-30T14:44:18.950Z,6.83
2019-03-30T14:46:45.256Z,7.23
2019-03-30T14:49:11.411Z,5.93
2019-03-30T14:51:37.567Z,7.33
2019-03-30T14:54:03.756Z,7.07
2019-03-30T14:56:29.911Z,6.30
2019-03-30T14:59:09.063Z,6.33
2019-03-30T15:01:24.156Z,6.83
2019-03-30T15:03:50.331Z,6.70
2019-03-30T15:06:16.581Z,6.40
2019-03-30T15:08:42.764Z,8.70
2019-03-30T15:11:08.922Z,7.57
2019-03-30T15:13:35.082Z,7.90
2019-03-30T15:16:01.282Z,7.23
2019-03-30T15:18:27.456Z,6.73
2019-03-30T15:20:53.715Z,8.20
2019-03-30T15:23:21.819Z,7.23
2019-03-30T15:25:47.973Z,7.80
2019-03-30T15:28:14.153Z,8.53
2019-03-30T15:30:40.555Z,7.53
2019-03-30T15:33:06.808Z,9.23
2019-03-30T15:35:33.072Z,8.93
2019-03-30T15:37:59.251Z,10.60
2019-03-30T15:40:25.410Z,9.93
2019-03-30T15:42:51.572Z,10.97
2019-03-30T15:45:17.752Z,13.23
2019-03-30T15:47:44.007Z,13.10
2019-03-30T15:50:10.660Z,12.10
2019-03-30T15:52:36.847Z,11.17
2019-03-30T15:55:06.609Z,10.13
2019-03-30T15:57:32.761Z,9.03
2019-03-30T15:59:58.953Z,10.60
2019-03-30T16:02:25.114Z,9.13
2019-03-30T16:04:51.374Z,8.87
2019-03-30T16:07:17.661Z,8.70
2019-03-30T16:09:43.915Z,9.27
2019-03-30T16:12:10.066Z,8.60
2019-03-30T16:14:36.261Z,8.53
2019-03-30T16:17:02.616Z,11.87
2019-03-30T16:19:28.955Z,11.73
2019-03-30T16:21:55.147Z,8.83
2019-03-30T16:24:21.403Z,14.10
2019-03-30T16:26:47.559Z,17.77
2019-03-30T16:29:13.801Z,33.63
2019-03-30T16:31:39.950Z,32.10
2019-03-30T16:34:06.218Z,21.53
2019-03-30T16:36:32.412Z,21.47
2019-03-30T16:38:58.675Z,17.67
2019-03-30T16:41:24.823Z,20.77
2019-03-30T16:43:51.015Z,16.40
2019-03-30T16:46:17.175Z,16.63
2019-03-30T16:48:43.330Z,17.77
2019-03-30T16:51:09.515Z,18.83
2019-03-30T16:53:35.666Z,25.30
2019-03-30T16:56:01.878Z,24.07
2019-03-30T16:58:28.135Z,28.67
2019-03-30T17:00:56.836Z,25.63
2019-03-30T17:03:22.472Z,25.00
2019-03-30T17:05:48.674Z,25.33
2019-03-30T17:08:14.831Z,28.83
2019-03-30T17:10:40.983Z,23.10
2019-03-30T17:13:07.194Z,26.23
2019-03-30T17:15:33.342Z,24.73
2019-03-30T17:17:59.620Z,25.43
2019-03-30T17:20:25.929Z,25.13
2019-03-30T17:22:52.116Z,26.07
2019-03-30T17:25:18.283Z,26.20
2019-03-30T17:27:57.477Z,21.13
2019-03-30T17:30:12.893Z,19.93
2019-03-30T17:32:39.061Z,25.63
2019-03-30T17:35:05.464Z,25.17
2019-03-30T17:37:31.634Z,23.63
2019-03-30T17:39:57.828Z,28.07
2019-03-30T17:42:24.039Z,29.53
2019-03-30T17:44:50.332Z,27.70
2019-03-30T17:47:16.620Z,26.97
2019-03-30T17:49:42.818Z,34.27
2019-03-30T17:52:08.997Z,28.20
2019-03-30T17:54:35.179Z,25.30
2019-03-30T17:57:01.409Z,26.57
2019-03-30T17:59:27.592Z,62.67
2019-03-30T18:01:53.870Z,45.83
2019-03-30T18:04:20.091Z,35.57
2019-03-30T18:06:46.281Z,26.77
2019-03-30T18:09:12.557Z,28.97
2019-03-30T18:11:38.772Z,29.17
2019-03-30T18:14:04.951Z,24.33
2019-03-30T18:16:31.134Z,21.13
2019-03-30T18:18:57.464Z,36.23
2019-03-30T18:21:23.658Z,30.13
2019-03-30T18:23:49.840Z,32.53
2019-03-30T18:26:16.158Z,29.50
2019-03-30T18:28:42.328Z,33.70
2019-03-30T18:31:10.655Z,29.27
2019-03-30T18:33:36.974Z,31.47
2019-03-30T18:36:03.155Z,64.87
2019-03-30T18:38:31.452Z,45.33
2019-03-30T18:40:57.674Z,30.20
2019-03-30T18:43:24.860Z,27.83
2019-03-30T18:45:51.038Z,28.20
2019-03-30T18:48:18.562Z,30.17
2019-03-30T18:50:45.342Z,28.30
2019-03-30T18:53:12.229Z,29.17
2019-03-30T18:55:38.544Z,23.33
2019-03-30T18:58:05.014Z,21.93
2019-03-30T19:00:31.288Z,24.90
2019-03-30T19:02:57.615Z,29.17
2019-03-30T19:05:23.910Z,24.93
2019-03-30T19:07:50.107Z,25.70
2019-03-30T19:10:16.335Z,27.13
2019-03-30T19:12:42.625Z,24.57
2019-03-30T19:15:08.908Z,18.43
2019-03-30T19:17:35.112Z,18.40
2019-03-30T19:20:01.393Z,20.87
2019-03-30T19:22:27.583Z,19.63
2019-03-30T19:24:53.788Z,19.03
2019-03-30T19:27:19.970Z,16.43
2019-03-30T19:29:46.152Z,24.50
2019-03-30T19:32:12.372Z,20.53
2019-03-30T19:34:38.647Z,16.43
2019-03-30T19:37:04.836Z,16.87
2019-03-30T19:39:30.954Z,13.57
2019-03-30T19:41:57.149Z,14.70
2019-03-30T19:44:23.642Z,15.67
2019-03-30T19:46:49.863Z,12.37
2019-03-30T19:49:16.148Z,11.23
2019-03-30T19:51:42.325Z,14.27
2019-03-30T19:54:08.655Z,26.03
2019-03-30T19:56:34.841Z,18.97
2019-03-30T19:59:10.489Z,14.73
2019-03-30T20:01:29.255Z,13.30
2019-03-30T20:03:55.434Z,12.87
2019-03-30T20:06:21.616Z,12.93
2019-03-30T20:08:47.839Z,10.97
2019-03-30T20:11:14.024Z,9.20
2019-03-30T20:13:40.307Z,11.23
2019-03-30T20:16:06.516Z,10.43
2019-03-30T20:18:32.796Z,13.23
2019-03-30T20:20:58.973Z,12.97
2019-03-30T20:23:25.175Z,13.67
2019-03-30T20:25:51.465Z,14.20
2019-03-30T20:28:17.642Z,14.20
2019-03-30T20:30:43.861Z,14.53
2019-03-30T20:33:10.096Z,13.37
2019-03-30T20:35:36.265Z,13.03
2019-03-30T20:38:02.482Z,45.00
2019-03-30T20:40:28.666Z,21.23
2019-03-30T20:42:54.936Z,22.53
2019-03-30T20:45:21.152Z,15.93
2019-03-30T20:47:47.343Z,12.70
2019-03-30T20:50:15.292Z,12.27
2019-03-30T20:52:41.520Z,14.90
2019-03-30T20:55:07.897Z,14.57
2019-03-30T20:57:34.075Z,13.77
2019-03-30T21:00:00.356Z,16.53
2019-03-30T21:02:26.660Z,13.30
2019-03-30T21:04:52.950Z,13.67
2019-03-30T21:07:19.168Z,14.93
2019-03-30T21:09:45.347Z,14.27
2019-03-30T21:12:11.534Z,14.60
2019-03-30T21:14:37.737Z,14.90
2019-03-30T21:17:03.924Z,17.07
2019-03-30T21:19:30.102Z,14.13
2019-03-30T21:21:56.324Z,11.30
2019-03-30T21:24:22.494Z,10.63
2019-03-30T21:26:48.677Z,10.80
2019-03-30T21:29:14.880Z,10.77
2019-03-30T21:31:41.236Z,11.23
2019-03-30T21:34:07.512Z,11.40
2019-03-30T21:36:33.732Z,10.90
2019-03-30T21:38:59.916Z,12.23
2019-03-30T21:41:26.091Z,10.53
2019-03-30T21:43:52.397Z,12.70
2019-03-30T21:46:18.583Z,10.87
2019-03-30T21:48:44.748Z,10.00
2019-03-30T21:51:10.947Z,12.73
2019-03-30T21:53:37.129Z,11.53
2019-03-30T21:56:03.301Z,16.53
2019-03-30T21:58:29.517Z,15.20
2019-03-30T22:00:55.700Z,16.17
2019-03-30T22:03:21.865Z,21.13
2019-03-30T22:05:48.092Z,19.20
2019-03-30T22:08:17.180Z,19.47
2019-03-30T22:10:42.554Z,17.47
2019-03-30T22:13:08.883Z,18.33
2019-03-30T22:15:35.064Z,17.80
2019-03-30T22:18:01.238Z,19.23
2019-03-30T22:20:27.442Z,20.00
2019-03-30T22:22:53.621Z,20.90
2019-03-30T22:25:19.797Z,19.97
2019-03-30T22:27:46.005Z,20.00
2019-03-30T22:30:24.234Z,17.30
2019-03-30T22:32:40.761Z,21.63
2019-03-30T22:35:07.051Z,16.30
2019-03-30T22:37:33.225Z,16.43
2019-03-30T22:39:59.402Z,18.23
2019-03-30T22:42:25.624Z,16.40
2019-03-30T22:44:51.925Z,15.17
2019-03-30T22:47:18.103Z,18.03
2019-03-30T22:49:44.312Z,17.50
2019-03-30T22:52:10.480Z,18.20
2019-03-30T22:54:36.648Z,16.50
2019-03-30T22:57:02.955Z,18.40
2019-03-30T22:59:29.141Z,18.43
2019-03-30T23:01:55.303Z,18.17
2019-03-30T23:04:21.597Z,18.67
2019-03-30T23:06:47.752Z,17.23
2019-03-30T23:09:13.904Z,16.70
2019-03-30T23:11:40.097Z,19.70
2019-03-30T23:14:06.256Z,16.63
2019-03-30T23:16:32.412Z,17.43
2019-03-30T23:18:58.596Z,17.87
2019-03-30T23:21:24.754Z,18.37
2019-03-30T23:23:50.907Z,17.20
2019-03-30T23:26:17.201Z,16.30
2019-03-30T23:28:43.350Z,17.03
2019-03-30T23:31:09.610Z,15.50
2019-03-30T23:33:35.792Z,15.90
2019-03-30T23:36:01.991Z,16.23
2019-03-30T23:38:28.155Z,16.77
2019-03-30T23:40:54.454Z,17.23
2019-03-30T23:43:20.612Z,18.93
2019-03-30T23:45:46.771Z,19.57
2019-03-30T23:48:12.955Z,18.03
2019-03-30T23:50:39.103Z,18.93
2019-03-30T23:53:07.470Z,18.13
2019-03-30T23:55:33.447Z,18.17
2019-03-30T23:57:59.604Z,18.43
